Time;durP1;ratioP1;P1;durP2;ratioP2;P2;SDS_P1;SDS_P2;PMS_P1;PMS_P2;Temp;Humidity;BMP_temperature;BMP_pressure;BME280_temperature;BME280_humidity;BME280_pressure;Samples;Min_cycle;Max_cycle;Signal;HPM_P1;HPM_P2
2022/02/17 00:01:29;;;;;;;;;;;;;;;8.07;59.63;98989.72;4333373;32;20023;-88
2022/02/17 00:03:54;;;;;;;;;;;;;;;8.09;59.63;98986.16;4333140;33;19979;-87
2022/02/17 00:06:20;;;;;;;;;;;;;;;8.21;59.63;98996.09;4333113;33;20046;-87
2022/02/17 00:08:45;;;;;;;;;;;;;;;8.21;59.63;98996.09;4333211;33;20557;-88
2022/02/17 00:11:10;;;;;;;;;;;;;;;8.40;59.65;98998.09;4333061;33;19980;-88
2022/02/17 00:13:36;;;;;;;;;;;;;;;8.24;59.64;99003.78;4333248;33;19995;-89
2022/02/17 00:16:01;;;;;;;;;;;;;;;8.23;59.64;98990.88;4333390;33;20042;-88
2022/02/17 00:18:27;;;;;;;;;;;;;;;8.26;59.64;98970.84;4333214;33;20046;-87
2022/02/17 00:20:58;;;;;;;;;;;;;;;8.28;59.64;98969.09;4333224;33;20257;-89
2022/02/17 00:23:24;;;;;;;;;;;;;;;8.17;59.63;98962.56;4334000;33;19991;-88
2022/02/17 00:25:49;;;;;;;;;;;;;;;8.28;59.63;98961.31;4333536;33;20007;-88
2022/02/17 00:28:14;;;;;;;;;;;;;;;8.34;59.64;98959.41;4333489;33;20014;-89
2022/02/17 00:30:39;;;;;;;;;;;;;;;8.29;59.63;98965.59;4333441;33;19976;-88
2022/02/17 00:33:05;;;;;;;;;;;;;;;8.23;59.64;98964.94;4333567;33;20014;-89
2022/02/17 00:35:31;;;;;;;;;;;;;;;8.40;59.65;98967.81;4333884;33;19999;-90
2022/02/17 00:37:57;;;;;;;;;;;;;;;8.08;59.63;98960.31;4334397;33;20059;-90
2022/02/17 00:40:22;;;;;;;;;;;;;;;8.29;59.65;98967.34;4333459;33;19978;-88
2022/02/17 00:42:47;;;;;;;;;;;;;;;8.53;59.66;98966.50;4332674;33;20006;-89
2022/02/17 00:45:12;;;;;;;;;;;;;;;8.49;59.65;98949.31;4346607;33;20034;-89
2022/02/17 00:47:38;;;;;;;;;;;;;;;8.28;59.64;98942.28;4333215;33;20333;-90
2022/02/17 00:50:03;;;;;;;;;;;;;;;8.07;59.63;98940.47;4333467;33;20015;-90
2022/02/17 00:52:28;;;;;;;;;;;;;;;8.21;59.64;98930.44;4333275;33;19982;-88
2022/02/17 00:54:54;;;;;;;;;;;;;;;8.20;59.63;98927.00;4333620;33;20010;-92
2022/02/17 00:57:19;;;;;;;;;;;;;;;8.39;59.65;98916.00;4333524;33;20108;-90
2022/02/17 00:59:44;;;;;;;;;;;;;;;8.19;59.63;98907.16;4334481;33;19979;-92
2022/02/17 01:02:10;;;;;;;;;;;;;;;8.09;59.63;98915.34;4334513;33;19996;-90
2022/02/17 01:04:35;;;;;;;;;;;;;;;8.25;59.64;98906.09;4333238;33;19991;-90
2022/02/17 01:07:00;;;;;;;;;;;;;;;8.34;59.65;98904.97;4334016;33;19996;-90
2022/02/17 01:09:25;;;;;;;;;;;;;;;8.44;59.66;98904.56;4333218;33;20392;-90
2022/02/17 01:11:50;;;;;;;;;;;;;;;8.47;59.65;98886.28;4332195;33;27927;-89
2022/02/17 01:14:16;;;;;;;;;;;;;;;8.50;59.65;98873.22;4332298;33;21070;-89
2022/02/17 01:16:41;;;;;;;;;;;;;;;8.51;59.66;98861.09;4334580;32;19995;-89
2022/02/17 01:19:06;;;;;;;;;;;;;;;8.47;59.65;98857.75;4334211;33;26558;-88
2022/02/17 01:21:32;;;;;;;;;;;;;;;8.62;59.66;98866.72;4334825;33;20006;-89
2022/02/17 01:23:57;;;;;;;;;;;;;;;8.52;59.66;98870.59;4334481;33;20016;-88
2022/02/17 01:26:22;;;;;;;;;;;;;;;8.46;59.65;98868.19;4334506;33;24878;-89
2022/02/17 01:28:47;;;;;;;;;;;;;;;8.50;59.65;98862.00;4334424;33;21410;-89
2022/02/17 01:31:13;;;;;;;;;;;;;;;8.42;59.64;98877.00;4334839;33;20008;-89
2022/02/17 01:33:38;;;;;;;;;;;;;;;8.61;59.66;98909.13;4334807;33;19988;-88
2022/02/17 01:36:06;;;;;;;;;;;;;;;8.58;59.66;98889.34;4334841;33;20090;-90
2022/02/17 01:38:38;;;;;;;;;;;;;;;8.47;59.65;98864.69;4335144;33;20055;-89
2022/02/17 01:41:04;;;;;;;;;;;;;;;8.53;59.66;98854.97;4334869;33;20042;-90
2022/02/17 01:43:31;;;;;;;;;;;;;;;8.55;59.65;98852.31;4348365;33;19984;-89
2022/02/17 01:45:56;;;;;;;;;;;;;;;8.60;59.66;98850.37;4334637;33;19991;-89
2022/02/17 01:48:21;;;;;;;;;;;;;;;8.75;59.67;98843.72;4334286;33;20451;-88
2022/02/17 01:50:47;;;;;;;;;;;;;;;8.70;59.66;98814.53;4334141;33;20015;-88
2022/02/17 01:53:12;;;;;;;;;;;;;;;8.69;59.66;98797.28;4334386;33;20000;-89
2022/02/17 01:55:37;;;;;;;;;;;;;;;8.77;59.67;98793.50;4334503;33;20373;-89
2022/02/17 01:58:03;;;;;;;;;;;;;;;8.64;59.66;98796.63;4334574;33;19984;-89
2022/02/17 02:00:28;;;;;;;;;;;;;;;8.64;59.66;98797.47;4334328;32;19987;-90
2022/02/17 02:02:53;;;;;;;;;;;;;;;8.71;59.66;98795.47;4334322;33;20027;-89
2022/02/17 02:05:19;;;;;;;;;;;;;;;8.71;59.66;98788.53;4334579;33;20018;-90
2022/02/17 02:07:44;;;;;;;;;;;;;;;8.49;59.65;98785.09;4334573;33;19987;-90
2022/02/17 02:10:09;;;;;;;;;;;;;;;8.65;59.66;98775.81;4334288;33;19994;-90
2022/02/17 02:12:34;;;;;;;;;;;;;;;8.67;59.66;98767.97;4334275;33;20281;-89
2022/02/17 02:15:00;;;;;;;;;;;;;;;8.48;59.65;98763.50;4334482;33;20007;-89
2022/02/17 02:17:25;;;;;;;;;;;;;;;8.47;59.65;98753.19;4334437;33;19999;-88
2022/02/17 02:19:55;;;;;;;;;;;;;;;8.66;59.66;98750.72;4334530;33;19995;-90
2022/02/17 02:22:20;;;;;;;;;;;;;;;8.49;59.64;98753.97;4335043;33;20048;-91
2022/02/17 02:24:45;;;;;;;;;;;;;;;8.47;59.65;98740.22;4333881;33;28328;-91
2022/02/17 02:27:11;;;;;;;;;;;;;;;8.55;59.65;98733.84;4334432;33;21042;-90
2022/02/17 02:29:37;;;;;;;;;;;;;;;8.45;59.65;98734.25;4335037;33;19983;-90
2022/02/17 02:32:02;;;;;;;;;;;;;;;8.70;59.66;98731.50;4335007;33;20333;-93
2022/02/17 02:34:27;;;;;;;;;;;;;;;8.56;59.65;98717.38;4334799;33;20013;-90
2022/02/17 02:36:52;;;;;;;;;;;;;;;8.70;59.66;98719.38;4334672;33;19999;-91
2022/02/17 02:39:18;;;;;;;;;;;;;;;8.41;59.64;98730.94;4334785;33;20301;-90
2022/02/17 02:41:43;;;;;;;;;;;;;;;8.50;59.65;98735.75;4334800;33;20027;-91
2022/02/17 02:44:08;;;;;;;;;;;;;;;8.56;59.65;98735.53;4334519;33;20015;-90
2022/02/17 02:46:34;;;;;;;;;;;;;;;8.57;59.65;98739.81;4334800;33;20026;-90
2022/02/17 02:48:59;;;;;;;;;;;;;;;8.68;59.66;98728.16;4334412;33;20009;-90
2022/02/17 02:51:24;;;;;;;;;;;;;;;8.70;59.67;98721.97;4334453;33;20806;-88
2022/02/17 02:53:50;;;;;;;;;;;;;;;8.92;59.67;98702.03;4347397;33;20238;-89
2022/02/17 02:56:15;;;;;;;;;;;;;;;8.69;59.66;98703.88;4334155;33;19988;-88
2022/02/17 02:58:40;;;;;;;;;;;;;;;8.60;59.66;98705.97;4333975;33;20001;-89
2022/02/17 03:01:05;;;;;;;;;;;;;;;8.99;59.68;98706.94;4333912;33;19991;-89
2022/02/17 03:03:31;;;;;;;;;;;;;;;8.87;59.67;98697.94;4334314;33;20029;-88
2022/02/17 03:05:56;;;;;;;;;;;;;;;8.92;59.67;98686.44;4334281;33;20357;-89
2022/02/17 03:08:21;;;;;;;;;;;;;;;8.89;59.67;98683.16;4333700;33;20009;-88
2022/02/17 03:10:46;;;;;;;;;;;;;;;8.86;59.66;98667.72;4333760;33;20031;-89
2022/02/17 03:13:12;;;;;;;;;;;;;;;8.91;59.67;98669.19;4334043;33;20046;-88
2022/02/17 03:15:37;;;;;;;;;;;;;;;8.92;59.67;98668.28;4334021;33;20034;-88
2022/02/17 03:18:02;;;;;;;;;;;;;;;9.08;59.68;98671.09;4333914;33;20017;-88
2022/02/17 03:20:27;;;;;;;;;;;;;;;9.06;59.68;98665.13;4333993;33;20062;-88
2022/02/17 03:22:53;;;;;;;;;;;;;;;9.02;59.68;98660.97;4334018;33;19995;-89
2022/02/17 03:25:18;;;;;;;;;;;;;;;9.10;59.68;98658.03;4333786;33;20348;-88
2022/02/17 03:27:43;;;;;;;;;;;;;;;9.13;59.69;98653.53;4333915;33;20047;-88
2022/02/17 03:30:09;;;;;;;;;;;;;;;9.20;59.69;98654.13;4333634;33;20029;-88
2022/02/17 03:32:34;;;;;;;;;;;;;;;9.12;59.69;98653.63;4333750;33;20053;-88
2022/02/17 03:35:00;;;;;;;;;;;;;;;9.18;59.68;98654.19;4333711;33;19987;-87
2022/02/17 03:37:25;;;;;;;;;;;;;;;9.06;59.68;98646.94;4333235;33;19999;-88
2022/02/17 03:39:50;;;;;;;;;;;;;;;9.13;59.69;98637.97;4333656;33;20041;-88
2022/02/17 03:42:16;;;;;;;;;;;;;;;9.13;59.69;98637.13;4333774;33;19995;-88
2022/02/17 03:44:41;;;;;;;;;;;;;;;9.27;59.70;98627.00;4333889;33;20314;-88
2022/02/17 03:47:06;;;;;;;;;;;;;;;9.51;59.71;98632.84;4346976;33;23251;-88
2022/02/17 03:49:31;;;;;;;;;;;;;;;9.17;59.69;98628.28;4333751;33;20314;-89
2022/02/17 03:51:57;;;;;;;;;;;;;;;9.12;59.69;98638.88;4333981;33;20017;-89
2022/02/17 03:54:22;;;;;;;;;;;;;;;9.17;59.69;98633.47;4333272;33;23331;-88
2022/02/17 03:56:47;;;;;;;;;;;;;;;9.25;59.69;98652.19;4333391;33;20350;-88
2022/02/17 03:59:13;;;;;;;;;;;;;;;9.37;59.70;98646.44;4333464;32;20310;-88
2022/02/17 04:01:38;;;;;;;;;;;;;;;9.01;59.68;98664.47;4333365;33;19991;-90
2022/02/17 04:04:04;;;;;;;;;;;;;;;9.21;59.69;98656.62;4332718;33;20403;-89
2022/02/17 04:06:30;;;;;;;;;;;;;;;9.16;59.69;98671.59;4332161;33;19983;-88
2022/02/17 04:08:55;;;;;;;;;;;;;;;9.10;59.68;98679.66;4330824;33;19995;-88
2022/02/17 04:11:20;;;;;;;;;;;;;;;9.30;59.70;98686.56;4330907;33;20022;-88
2022/02/17 04:13:46;;;;;;;;;;;;;;;9.20;59.69;98685.28;4343902;33;23002;-88
2022/02/17 04:16:12;;;;;;;;;;;;;;;9.08;59.68;98685.81;4344825;33;20002;-88
2022/02/17 04:18:38;;;;;;;;;;;;;;;9.15;59.69;98680.28;4332857;33;20019;-89
2022/02/17 04:21:03;;;;;;;;;;;;;;;9.16;59.69;98673.34;4346704;33;19998;-88
2022/02/17 04:23:28;;;;;;;;;;;;;;;9.26;59.70;98651.28;4345034;33;20006;-87
2022/02/17 04:25:53;;;;;;;;;;;;;;;9.39;59.70;98643.75;4346693;33;20033;-88
2022/02/17 04:28:19;;;;;;;;;;;;;;;9.32;59.69;98642.34;4345751;33;20518;-88
2022/02/17 04:30:44;;;;;;;;;;;;;;;9.35;59.70;98637.03;4332752;33;20003;-87
2022/02/17 04:33:09;;;;;;;;;;;;;;;9.31;59.69;98628.53;4333074;33;20368;-89
2022/02/17 04:35:34;;;;;;;;;;;;;;;9.13;59.69;98619.78;4332492;33;28150;-89
2022/02/17 04:38:00;;;;;;;;;;;;;;;9.34;59.70;98630.16;4333087;33;20025;-89
2022/02/17 04:43:09;;;;;;;;;;;;;;;9.38;59.69;98629.94;4334934;33;20025;-87
2022/02/17 04:45:35;;;;;;;;;;;;;;;9.41;59.70;98590.00;4346338;33;20011;-87
2022/02/17 04:48:03;;;;;;;;;;;;;;;9.22;59.69;98585.63;4345092;33;20047;-89
2022/02/17 04:50:28;;;;;;;;;;;;;;;9.12;59.69;98586.97;4333415;33;20000;-89
2022/02/17 04:52:53;;;;;;;;;;;;;;;9.14;59.69;98585.13;4334866;33;20071;-87
2022/02/17 04:55:19;;;;;;;;;;;;;;;9.38;59.70;98582.34;4346111;33;36158;-87
2022/02/17 04:57:44;;;;;;;;;;;;;;;9.01;59.68;98577.97;4348389;33;20003;-87
2022/02/17 05:00:10;;;;;;;;;;;;;;;9.13;59.69;98585.22;4348384;32;19995;-88
2022/02/17 05:02:36;;;;;;;;;;;;;;;9.09;59.68;98584.50;4322211;33;20317;-89
2022/02/17 05:05:01;;;;;;;;;;;;;;;9.12;59.69;98586.13;4334805;33;19984;-89
2022/02/17 05:07:26;;;;;;;;;;;;;;;9.16;59.69;98574.69;4334618;33;20364;-89
2022/02/17 05:09:52;;;;;;;;;;;;;;;9.06;59.68;98568.22;4334441;32;20025;-88
2022/02/17 05:12:17;;;;;;;;;;;;;;;9.04;59.69;98565.72;4333778;33;30646;-88
2022/02/17 05:14:42;;;;;;;;;;;;;;;9.02;59.68;98558.91;4334673;33;19999;-87
2022/02/17 05:17:07;;;;;;;;;;;;;;;9.01;59.68;98547.69;4334530;33;20010;-89
2022/02/17 05:19:33;;;;;;;;;;;;;;;8.93;59.67;98526.41;4334681;33;20015;-88
2022/02/17 05:21:58;;;;;;;;;;;;;;;8.92;59.68;98519.53;4348007;32;20306;-88
2022/02/17 05:24:23;;;;;;;;;;;;;;;8.89;59.67;98514.47;4348358;33;20818;-88
2022/02/17 05:26:48;;;;;;;;;;;;;;;8.87;59.67;98501.56;4334513;33;20109;-88
2022/02/17 05:29:14;;;;;;;;;;;;;;;9.04;59.68;98494.78;4334519;33;20022;-87
2022/02/17 05:31:39;;;;;;;;;;;;;;;8.91;59.68;98503.09;4334026;33;19979;-88
2022/02/17 05:34:04;;;;;;;;;;;;;;;9.05;59.68;98502.50;4334082;33;20026;-88
2022/02/17 05:36:29;;;;;;;;;;;;;;;9.10;59.68;98497.94;4334232;33;20018;-88
2022/02/17 05:38:54;;;;;;;;;;;;;;;9.01;59.68;98490.56;4333808;33;24713;-88
2022/02/17 05:41:20;;;;;;;;;;;;;;;9.02;59.68;98470.66;4347836;33;20022;-88
2022/02/17 05:43:45;;;;;;;;;;;;;;;9.02;59.68;98468.06;4347841;33;20516;-87
2022/02/17 05:46:10;;;;;;;;;;;;;;;9.02;59.68;98455.91;4347543;33;19999;-88
2022/02/17 05:48:35;;;;;;;;;;;;;;;9.02;59.68;98457.69;4333536;33;25405;-88
2022/02/17 05:51:01;;;;;;;;;;;;;;;9.04;59.69;98433.31;4333786;33;19983;-87
2022/02/17 05:53:26;;;;;;;;;;;;;;;9.00;59.68;98457.75;4347726;33;20329;-87
2022/02/17 05:55:51;;;;;;;;;;;;;;;8.98;59.68;98475.13;4333922;32;20062;-87
2022/02/17 05:58:16;;;;;;;;;;;;;;;8.89;59.67;98470.34;4347427;33;20003;-87
2022/02/17 06:00:42;;;;;;;;;;;;;;;8.90;59.68;98477.22;4333566;33;20006;-87
2022/02/17 06:03:07;;;;;;;;;;;;;;;8.99;59.68;98461.25;4334276;33;20067;-87
2022/02/17 06:05:32;;;;;;;;;;;;;;;8.90;59.68;98470.28;4334049;33;19988;-87
2022/02/17 06:07:58;;;;;;;;;;;;;;;9.15;59.69;98470.00;4346506;33;20018;-87
2022/02/17 06:10:23;;;;;;;;;;;;;;;9.26;59.70;98459.13;4334157;33;20022;-87
2022/02/17 06:12:48;;;;;;;;;;;;;;;9.30;59.70;98460.66;4346290;32;20025;-87
2022/02/17 06:15:14;;;;;;;;;;;;;;;9.08;59.68;98447.84;4333991;33;20375;-87
2022/02/17 06:17:39;;;;;;;;;;;;;;;9.21;59.69;98455.88;4334261;33;20029;-87
2022/02/17 06:20:05;;;;;;;;;;;;;;;9.22;59.69;98440.22;4334236;33;20009;-87
2022/02/17 06:22:30;;;;;;;;;;;;;;;9.20;59.69;98439.47;4334267;33;19998;-87
2022/02/17 06:24:55;;;;;;;;;;;;;;;9.16;59.69;98437.94;4333634;33;21865;-87
2022/02/17 06:27:20;;;;;;;;;;;;;;;9.26;59.70;98440.94;4333652;33;20007;-88
2022/02/17 06:29:45;;;;;;;;;;;;;;;9.20;59.69;98436.03;4346267;33;20054;-87
2022/02/17 06:32:11;;;;;;;;;;;;;;;9.05;59.68;98450.59;4334022;33;20025;-86
2022/02/17 06:34:36;;;;;;;;;;;;;;;8.92;59.68;98436.47;4333940;33;20038;-86
2022/02/17 06:37:01;;;;;;;;;;;;;;;9.04;59.69;98438.53;4334137;33;20353;-87
2022/02/17 06:39:26;;;;;;;;;;;;;;;9.18;59.68;98467.25;4334005;33;19984;-86
2022/02/17 06:41:52;;;;;;;;;;;;;;;9.02;59.68;98468.91;4347541;33;20006;-86
2022/02/17 06:44:17;;;;;;;;;;;;;;;9.13;59.69;98466.63;4347154;33;30895;-87
2022/02/17 06:46:42;;;;;;;;;;;;;;;9.30;59.70;98481.44;4347275;33;21023;-87
2022/02/17 06:49:07;;;;;;;;;;;;;;;9.27;59.70;98465.16;4347593;33;19992;-87
2022/02/17 06:51:33;;;;;;;;;;;;;;;9.26;59.70;98464.31;4347714;33;19987;-87
2022/02/17 06:53:58;;;;;;;;;;;;;;;9.48;59.70;98457.19;4347907;33;20277;-87
2022/02/17 06:56:24;;;;;;;;;;;;;;;9.30;59.70;98428.66;4333713;33;20003;-88
2022/02/17 06:58:49;;;;;;;;;;;;;;;9.43;59.70;98404.59;4346406;33;20305;-88
2022/02/17 07:01:14;;;;;;;;;;;;;;;9.47;59.70;98407.91;4333896;33;20018;-87
2022/02/17 07:03:39;;;;;;;;;;;;;;;9.47;59.70;98416.53;4333575;33;20781;-87
2022/02/17 07:06:04;;;;;;;;;;;;;;;9.55;59.71;98390.19;4334030;33;20021;-87
2022/02/17 07:08:30;;;;;;;;;;;;;;;9.44;59.70;98393.28;4347797;33;19999;-87
2022/02/17 07:10:55;;;;;;;;;;;;;;;9.43;59.70;98404.59;4347387;33;20002;-87
2022/02/17 07:13:23;;;;;;;;;;;;;;;9.57;59.71;98409.13;4346741;33;20031;-87
2022/02/17 07:15:48;;;;;;;;;;;;;;;9.41;59.70;98437.59;4334042;33;20019;-87
2022/02/17 07:18:14;;;;;;;;;;;;;;;9.55;59.70;98434.34;4333954;33;20018;-87
2022/02/17 07:20:42;;;;;;;;;;;;;;;9.58;59.71;98459.34;4347692;33;20026;-87
2022/02/17 07:23:08;;;;;;;;;;;;;;;9.63;59.71;98446.94;4333883;33;20329;-88
2022/02/17 07:25:33;;;;;;;;;;;;;;;9.53;59.71;98481.19;4333809;33;20059;-87
2022/02/17 07:27:58;;;;;;;;;;;;;;;9.35;59.70;98418.88;4347043;33;19976;-88
2022/02/17 07:30:23;;;;;;;;;;;;;;;9.51;59.71;98425.03;4347318;33;20019;-88
2022/02/17 07:32:49;;;;;;;;;;;;;;;9.52;59.71;98413.72;4347385;33;19999;-88
2022/02/17 07:35:14;;;;;;;;;;;;;;;9.51;59.71;98412.88;4346994;33;24945;-88
2022/02/17 07:37:39;;;;;;;;;;;;;;;9.67;59.72;98394.75;4347465;33;19991;-87
2022/02/17 07:40:08;;;;;;;;;;;;;;;9.67;59.72;98376.56;4333860;33;19980;-88
2022/02/17 07:42:33;;;;;;;;;;;;;;;9.66;59.72;98364.50;4333856;33;20055;-87
2022/02/17 07:45:00;;;;;;;;;;;;;;;9.72;59.72;98353.81;4333877;33;19987;-87
2022/02/17 07:47:25;;;;;;;;;;;;;;;9.76;59.72;98363.13;4347518;33;20648;-88
2022/02/17 07:49:54;;;;;;;;;;;;;;;9.79;59.73;98330.94;4333783;33;20462;-89
2022/02/17 07:52:19;;;;;;;;;;;;;;;9.83;59.72;98332.47;4334335;33;20012;-88
2022/02/17 07:54:45;;;;;;;;;;;;;;;9.88;59.73;98340.03;4321458;33;20025;-89
2022/02/17 07:57:10;;;;;;;;;;;;;;;9.76;59.72;98339.75;4346796;33;26414;-89
2022/02/17 07:59:36;;;;;;;;;;;;;;;9.88;59.73;98376.41;4333744;33;20005;-90
2022/02/17 08:02:04;;;;;;;;;;;;;;;9.96;59.73;98341.31;4333580;33;20003;-89
2022/02/17 08:04:30;;;;;;;;;;;;;;;9.97;59.73;98321.38;4347257;32;20333;-89
2022/02/17 08:06:56;;;;;;;;;;;;;;;9.96;59.73;98332.69;4333595;33;19998;-89
2022/02/17 08:09:21;;;;;;;;;;;;;;;9.96;59.73;98323.13;4333374;33;20023;-88
2022/02/17 08:11:47;;;;;;;;;;;;;;;10.04;59.74;98326.16;4347068;33;19979;-89
2022/02/17 08:14:14;;;;;;;;;;;;;;;10.16;59.75;98380.09;4347062;33;20336;-88
2022/02/17 08:16:39;;;;;;;;;;;;;;;10.02;59.74;98374.78;4345579;33;19991;-89
2022/02/17 08:19:07;;;;;;;;;;;;;;;9.92;59.72;98372.72;4347062;33;20352;-89
2022/02/17 08:21:32;;;;;;;;;;;;;;;9.96;59.73;98389.88;4346934;33;19984;-88
2022/02/17 08:23:57;;;;;;;;;;;;;;;10.15;59.74;98344.63;4346856;33;20053;-88
2022/02/17 08:26:22;;;;;;;;;;;;;;;10.16;59.75;98356.69;4333378;33;20356;-89
2022/02/17 08:28:48;;;;;;;;;;;;;;;10.40;59.76;98331.19;4333453;33;20023;-89
2022/02/17 08:31:14;;;;;;;;;;;;;;;10.67;59.76;98336.69;4345659;33;20643;-89
2022/02/17 08:33:40;;;;;;;;;;;;;;;10.68;59.76;98351.38;4333315;33;20010;-89
2022/02/17 08:36:05;;;;;;;;;;;;;;;10.96;59.79;98349.84;4333348;33;19995;-89
2022/02/17 08:38:31;;;;;;;;;;;;;;;11.13;59.79;98348.91;4346662;33;20011;-88
2022/02/17 08:40:57;;;;;;;;;;;;;;;11.38;59.81;98339.59;4333160;33;20015;-88
2022/02/17 08:43:22;;;;;;;;;;;;;;;11.61;59.82;98335.66;4333040;33;20006;-88
2022/02/17 08:45:47;;;;;;;;;;;;;;;11.77;59.83;98352.97;4332407;33;28824;-88
2022/02/17 08:48:13;;;;;;;;;;;;;;;11.62;59.82;98326.06;4333037;33;20009;-89
2022/02/17 08:50:43;;;;;;;;;;;;;;;11.34;59.80;98338.06;4332655;33;19999;-89
2022/02/17 08:53:08;;;;;;;;;;;;;;;11.38;59.81;98339.59;4333494;33;20133;-89
2022/02/17 08:55:33;;;;;;;;;;;;;;;11.49;59.81;98330.31;4332836;33;19983;-88
2022/02/17 08:57:58;;;;;;;;;;;;;;;11.49;59.81;98315.50;4332809;33;19998;-88
2022/02/17 09:00:24;;;;;;;;;;;;;;;11.52;59.81;98317.09;4332528;33;20407;-88
2022/02/17 09:02:49;;;;;;;;;;;;;;;11.49;59.82;98312.91;4332832;33;20332;-88
2022/02/17 09:05:14;;;;;;;;;;;;;;;11.54;59.82;98320.44;4332812;33;20019;-89
2022/02/17 09:07:39;;;;;;;;;;;;;;;11.53;59.82;98306.56;4332088;33;29591;-90
2022/02/17 09:10:05;;;;;;;;;;;;;;;11.69;59.83;98299.53;4332582;33;20063;-88
2022/02/17 09:12:31;;;;;;;;;;;;;;;11.69;59.83;98304.75;4332696;33;20003;-90
2022/02/17 09:14:56;;;;;;;;;;;;;;;11.86;59.84;98292.53;4332806;33;20369;-89
2022/02/17 09:17:21;;;;;;;;;;;;;;;11.94;59.84;98298.94;4332694;33;19984;-89
2022/02/17 09:19:46;;;;;;;;;;;;;;;12.09;59.85;98286.75;4332558;33;20051;-88
2022/02/17 09:22:12;;;;;;;;;;;;;;;12.18;59.86;98286.16;4332411;33;20035;-89
2022/02/17 09:24:37;;;;;;;;;;;;;;;12.39;59.86;98278.78;4332219;33;19998;-89
2022/02/17 09:27:02;;;;;;;;;;;;;;;12.38;59.86;98269.28;4346248;33;20024;-89
2022/02/17 09:29:27;;;;;;;;;;;;;;;12.41;59.86;98270.84;4317340;33;881160;-89
2022/02/17 09:31:53;;;;;;;;;;;;;;;12.39;59.86;98270.94;4332524;33;19999;-89
2022/02/17 09:34:18;;;;;;;;;;;;;;;12.51;59.87;98261.50;4345897;33;19988;-88
2022/02/17 09:36:43;;;;;;;;;;;;;;;12.46;59.87;98261.78;4346776;33;22592;-89
2022/02/17 09:39:08;;;;;;;;;;;;;;;12.51;59.87;98251.88;4334603;33;20042;-89
2022/02/17 09:41:34;;;;;;;;;;;;;;;12.63;59.88;98239.84;4334568;33;20502;-89
2022/02/17 09:44:03;;;;;;;;;;;;;;;12.80;59.88;98230.94;4334691;33;20356;-89
2022/02/17 09:46:28;;;;;;;;;;;;;;;12.78;59.88;98243.25;4348182;33;20373;-89
2022/02/17 09:48:55;;;;;;;;;;;;;;;12.78;59.88;98220.59;4334234;33;20116;-88
2022/02/17 09:51:24;;;;;;;;;;;;;;;12.95;59.89;98226.44;4343882;32;20015;-89
2022/02/17 09:53:50;;;;;;;;;;;;;;;13.08;59.90;98209.87;4322216;33;19979;-89
2022/02/17 09:56:16;;;;;;;;;;;;;;;13.05;59.90;98194.41;4334761;33;19995;-89
2022/02/17 09:58:41;;;;;;;;;;;;;;;13.15;59.90;98173.72;4322365;33;19983;-89
2022/02/17 10:01:06;;;;;;;;;;;;;;;13.19;59.91;98194.34;4322238;33;20838;-89
2022/02/17 10:03:37;;;;;;;;;;;;;;;13.24;59.91;98190.56;4334550;33;19975;-88
2022/02/17 10:06:06;;;;;;;;;;;;;;;13.38;59.92;98178.25;4323040;33;20752;-89
2022/02/17 10:08:31;;;;;;;;;;;;;;;13.45;59.92;98191.75;4334920;33;19999;-89
2022/02/17 10:10:57;;;;;;;;;;;;;;;13.48;59.92;98196.75;4322202;33;20009;-88
2022/02/17 10:13:22;;;;;;;;;;;;;;;13.56;59.92;98177.94;4334754;33;19979;-89
2022/02/17 10:15:51;;;;;;;;;;;;;;;13.65;59.94;98180.75;4334411;33;20042;-89
2022/02/17 10:18:18;;;;;;;;;;;;;;;13.89;59.95;98169.50;4334295;33;19992;-88
2022/02/17 10:20:52;;;;;;;;;;;;;;;13.92;59.95;98166.69;4334550;33;20288;-89
2022/02/17 10:23:18;;;;;;;;;;;;;;;14.03;59.96;98172.84;4347987;33;19988;-88
2022/02/17 10:25:59;;;;;;;;;;;;;;;13.99;59.95;98129.53;4334341;33;20010;-89
2022/02/17 10:28:25;;;;;;;;;;;;;;;14.12;59.96;98158.25;4334327;33;19999;-89
2022/02/17 10:30:50;;;;;;;;;;;;;;;14.26;59.96;98115.41;4334275;33;20015;-89
2022/02/17 10:33:16;;;;;;;;;;;;;;;14.47;59.97;98152.28;4334397;33;19984;-89
2022/02/17 10:35:50;;;;;;;;;;;;;;;14.60;59.98;98114.59;4322036;33;19993;-89
2022/02/17 10:38:17;;;;;;;;;;;;;;;14.66;59.99;98122.00;4334257;33;19992;-89
2022/02/17 10:40:42;;;;;;;;;;;;;;;14.68;59.99;98121.91;4347896;33;19999;-88
2022/02/17 10:43:09;;;;;;;;;;;;;;;14.71;59.99;98117.28;4347805;33;19987;-88
2022/02/17 10:45:34;;;;;;;;;;;;;;;14.84;59.99;98098.84;4334350;32;20047;-89
2022/02/17 10:48:17;;;;;;;;;;;;;;;14.77;59.99;98091.56;4346804;33;20571;-89
2022/02/17 10:50:43;;;;;;;;;;;;;;;14.84;59.99;98098.00;4347611;33;19995;-89
2022/02/17 10:53:18;;;;;;;;;;;;;;;14.88;60.00;98088.94;4334255;33;20330;-88
2022/02/17 10:55:50;;;;;;;;;;;;;;;14.72;60.00;98069.19;4334241;33;20055;-88
2022/02/17 10:58:16;;;;;;;;;;;;;;;14.85;60.00;98069.06;4334247;33;20401;-89
2022/02/17 11:00:43;;;;;;;;;;;;;;;14.77;59.99;98076.69;4334363;33;20030;-88
2022/02/17 11:03:08;;;;;;;;;;;;;;;14.91;60.00;98079.09;4347953;33;19987;-89
2022/02/17 11:05:33;;;;;;;;;;;;;;;15.16;60.01;98056.25;4347391;32;21680;-88
2022/02/17 11:07:59;;;;;;;;;;;;;;;15.30;60.02;98030.62;4333789;33;20007;-88
2022/02/17 11:10:24;;;;;;;;;;;;;;;15.46;60.03;98042.53;4333921;32;20082;-89
2022/02/17 11:12:49;;;;;;;;;;;;;;;15.37;60.02;98049.31;4346047;33;19995;-88
2022/02/17 11:15:15;;;;;;;;;;;;;;;15.45;60.03;98033.81;4333606;33;20015;-88
2022/02/17 11:17:41;;;;;;;;;;;;;;;15.52;60.03;98027.13;4334182;33;19992;-88
2022/02/17 11:20:07;;;;;;;;;;;;;;;15.78;60.05;98043.44;4333999;33;20007;-88
2022/02/17 11:22:32;;;;;;;;;;;;;;;15.67;60.04;98053.97;4347552;33;19987;-88
2022/02/17 11:24:58;;;;;;;;;;;;;;;15.75;60.04;98050.72;4333820;33;20034;-89
2022/02/17 11:27:23;;;;;;;;;;;;;;;15.80;60.05;98048.56;4333988;33;19995;-89
2022/02/17 11:29:48;;;;;;;;;;;;;;;15.75;60.05;98043.69;4333779;33;20006;-89
2022/02/17 11:32:18;;;;;;;;;;;;;;;15.82;60.05;98054.53;4333854;33;20333;-88
2022/02/17 11:34:45;;;;;;;;;;;;;;;15.98;60.06;98075.13;4334143;33;20819;-88
2022/02/17 11:37:28;;;;;;;;;;;;;;;15.93;60.07;98076.31;4333995;33;19995;-89
2022/02/17 11:39:57;;;;;;;;;;;;;;;16.02;60.07;98082.63;4333996;33;20043;-89
2022/02/17 11:42:29;;;;;;;;;;;;;;;15.75;60.05;98063.84;4333941;33;20091;-89
2022/02/17 11:45:07;;;;;;;;;;;;;;;15.83;60.05;98072.75;4321456;33;20481;-88
2022/02/17 11:47:51;;;;;;;;;;;;;;;15.70;60.05;98103.56;4347456;33;19995;-89
2022/02/17 11:50:31;;;;;;;;;;;;;;;15.57;60.04;98123.78;4333634;33;19995;-88
2022/02/17 11:53:15;;;;;;;;;;;;;;;15.32;60.03;98157.16;4347310;33;19998;-88
2022/02/17 11:55:40;;;;;;;;;;;;;;;15.23;60.02;98163.13;4333707;33;19991;-89
2022/02/17 11:58:25;;;;;;;;;;;;;;;15.11;60.02;98157.97;4333311;33;19995;-88
2022/02/17 12:00:51;;;;;;;;;;;;;;;15.11;60.02;98134.37;4347333;33;19995;-88
2022/02/17 12:03:36;;;;;;;;;;;;;;;15.17;60.02;98129.53;4333392;33;19987;-88
2022/02/17 12:06:20;;;;;;;;;;;;;;;15.31;60.02;98133.69;4347124;33;20055;-89
2022/02/17 12:08:52;;;;;;;;;;;;;;;15.59;60.04;98135.88;4333655;33;19999;-88
2022/02/17 12:11:34;;;;;;;;;;;;;;;15.65;60.05;98110.97;4347341;33;20351;-88
2022/02/17 12:14:00;;;;;;;;;;;;;;;15.73;60.04;98105.94;4334487;33;19999;-88
2022/02/17 12:16:37;;;;;;;;;;;;;;;15.73;60.04;98102.50;4347481;33;20017;-89
2022/02/17 12:19:13;;;;;;;;;;;;;;;15.84;60.05;98092.78;4347393;33;19991;-89
2022/02/17 12:21:39;;;;;;;;;;;;;;;16.06;60.06;98083.19;4333723;33;20047;-88
2022/02/17 12:24:05;;;;;;;;;;;;;;;16.18;60.07;98084.84;4347416;33;20005;-88
2022/02/17 12:26:39;;;;;;;;;;;;;;;16.41;60.09;98103.97;4347214;33;20011;-88
2022/02/17 12:29:20;;;;;;;;;;;;;;;16.43;60.09;98110.75;4333165;33;20426;-89
2022/02/17 12:31:46;;;;;;;;;;;;;;;16.41;60.08;98099.56;4346972;33;20014;-89
2022/02/17 12:34:11;;;;;;;;;;;;;;;16.44;60.09;98095.84;4347005;33;20297;-89
2022/02/17 12:36:36;;;;;;;;;;;;;;;16.53;60.09;98098.53;4333117;33;19995;-88
2022/02/17 12:39:03;;;;;;;;;;;;;;;16.70;60.11;98102.44;4346703;33;20590;-88
2022/02/17 12:41:28;;;;;;;;;;;;;;;16.54;60.09;98104.63;4333232;33;19999;-88
2022/02/17 12:43:53;;;;;;;;;;;;;;;16.69;60.10;98121.78;4333096;33;20547;-88
2022/02/17 12:46:18;;;;;;;;;;;;;;;16.42;60.09;98129.28;4332907;33;20003;-89
2022/02/17 12:48:44;;;;;;;;;;;;;;;16.44;60.09;98122.94;4346620;33;19995;-89
2022/02/17 12:51:09;;;;;;;;;;;;;;;16.42;60.09;98137.16;4332764;33;19999;-88